Time;durP1;ratioP1;P1;durP2;ratioP2;P2;SDS_P1;SDS_P2;PMS_P1;PMS_P2;Temp;Humidity;BMP_temperature;BMP_pressure;BME280_temperature;BME280_humidity;BME280_pressure;Samples;Min_cycle;Max_cycle;Signal;HPM_P1;HPM_P2
2022/01/25 00:24:32;;;;;;;88.67;80.73;;;;;;;4.80;100.00;103542.99;1846281;76;86075;-77
2022/01/25 00:30:31;;;;;;;91.87;83.57;;;;;;;4.88;100.00;103539.33;1904510;74;86074;-68
2022/01/25 00:36:19;;;;;;;88.80;80.80;;;;;;;4.78;100.00;103535.45;1884364;74;86285;-68
2022/01/25 00:42:03;;;;;;;91.47;82.97;;;;;;;4.72;100.00;103527.90;1889783;75;85359;-74
2022/01/25 00:47:50;;;;;;;90.47;81.87;;;;;;;4.72;100.00;103528.42;1925840;73;85407;-75
2022/01/25 00:59:35;;;;;;;90.53;82.13;;;;;;;4.59;100.00;103525.73;1978828;71;39690;-76
2022/01/25 01:05:18;;;;;;;92.70;83.93;;;;;;;4.63;100.00;103522.61;1826377;76;85294;-75
2022/01/25 01:11:07;;;;;;;92.83;84.40;;;;;;;4.45;100.00;103530.62;1899155;73;86266;-80
2022/01/25 01:41:46;;;;;;;90.00;81.37;;;;;;;4.31;100.00;103548.41;1835990;76;85858;-68
2022/01/25 01:47:23;;;;;;;89.60;81.30;;;;;;;4.25;100.00;103551.35;1898007;74;86644;-78
2022/01/25 01:53:07;;;;;;;88.57;79.97;;;;;;;4.26;100.00;103555.83;1887937;74;86712;-68
2022/01/25 01:58:55;;;;;;;87.50;79.63;;;;;;;4.21;100.00;103559.62;1926732;73;85958;-68
2022/01/25 02:07:46;;;;;;;90.00;81.53;;;;;;;4.12;100.00;103556.55;1895604;75;86298;-74
2022/01/25 02:10:16;;;;;;;88.93;80.43;;;;;;;4.16;100.00;103566.16;1825678;76;934755;-74
2022/01/25 02:12:49;;;;;;;87.07;78.83;;;;;;;4.19;100.00;103564.45;1825605;76;937653;-76
2022/01/25 02:15:19;;;;;;;87.93;79.70;;;;;;;4.29;100.00;103573.34;1799765;77;938661;-74
2022/01/25 02:23:31;;;;;;;86.40;78.28;;;;;;;4.22;100.00;103566.84;1784597;79;939156;-73
2022/01/25 02:26:04;;;;;;;88.07;80.00;;;;;;;4.20;100.00;103562.54;1810633;78;939037;-75
2022/01/25 02:28:38;;;;;;;86.50;78.63;;;;;;;4.25;100.00;103562.36;1814871;77;938795;-77
2022/01/25 02:31:10;;;;;;;89.60;81.43;;;;;;;4.13;100.00;103561.03;1826841;77;936925;-73
2022/01/25 02:33:41;;;;;;;88.83;80.17;;;;;;;4.06;100.00;103560.02;1814742;77;938653;-77
2022/01/25 02:36:13;;;;;;;86.73;78.57;;;;;;;4.11;100.00;103557.58;1827491;76;936638;-73
2022/01/25 02:38:44;;;;;;;85.43;77.30;;;;;;;4.21;100.00;103562.37;1826697;77;938638;-75
2022/01/25 02:41:14;;;;;;;86.60;78.40;;;;;;;4.28;100.00;103560.61;1826779;77;936817;-78
2022/01/25 02:43:46;;;;;;;92.77;84.07;;;;;;;4.21;100.00;103560.13;1827589;77;938972;-73
2022/01/25 02:48:29;;;;;;;88.70;80.60;;;;;;;4.11;100.00;103554.83;1826843;77;935751;-76
2022/01/25 02:48:56;;;;;;;88.07;79.87;;;;;;;4.13;100.00;103545.89;1825101;76;938759;-74
2022/01/25 02:51:29;;;;;;;88.17;79.92;;;;;;;4.05;100.00;103543.17;1814679;77;938956;-73
2022/01/25 02:54:00;;;;;;;88.50;80.13;;;;;;;4.04;100.00;103551.08;1827695;76;938816;-75
2022/01/25 02:56:31;;;;;;;93.00;84.30;;;;;;;4.10;100.00;103549.01;1815662;76;938698;-77
2022/01/25 02:59:01;;;;;;;90.63;82.30;;;;;;;3.95;100.00;103547.48;1826743;77;938848;-74
2022/01/25 03:01:32;;;;;;;88.90;80.53;;;;;;;3.96;100.00;103537.35;1814797;77;938763;-74
2022/01/25 03:07:21;;;;;;;90.50;81.97;;;;;;;4.01;100.00;103545.94;1969363;72;86260;-80
2022/01/25 03:13:13;;;;;;;91.50;83.37;;;;;;;3.98;100.00;103535.30;1883718;73;86308;-75
2022/01/25 03:19:01;;;;;;;90.93;82.47;;;;;;;3.97;100.00;103539.07;1871256;74;85303;-79
2022/01/25 03:24:45;;;;;;;86.67;78.23;;;;;;;3.99;100.00;103556.24;1910308;74;86241;-68
2022/01/25 03:30:30;;;;;;;90.37;81.87;;;;;;;3.81;100.00;103552.31;1983081;71;39599;-68
2022/01/25 03:36:14;;;;;;;90.30;81.93;;;;;;;3.86;100.00;103551.80;1887478;74;86129;-80
2022/01/25 03:41:59;;;;;;;89.57;81.30;;;;;;;4.26;100.00;103539.31;1841996;76;86398;-68
2022/01/25 03:47:56;;;;;;;90.57;82.20;;;;;;;4.07;100.00;103535.58;1916875;74;85676;-74
2022/01/25 03:53:29;;;;;;;86.87;78.70;;;;;;;3.80;100.00;103545.13;1952746;71;39708;-76
2022/01/25 03:59:17;;;;;;;91.20;83.17;;;;;;;4.04;100.00;103526.32;1838787;75;86060;-76
2022/01/25 04:05:01;;;;;;;88.80;80.67;;;;;;;3.82;100.00;103542.19;1873457;75;86723;-68
2022/01/25 04:10:45;;;;;;;89.30;81.43;;;;;;;3.84;100.00;103529.13;1911920;73;86204;-68
2022/01/25 04:16:34;;;;;;;90.23;82.33;;;;;;;3.85;100.00;103544.61;1987416;71;39686;-79
2022/01/25 04:28:23;;;;;;;89.63;81.53;;;;;;;4.20;100.00;103537.27;1974449;72;86058;-80
2022/01/25 04:34:12;;;;;;;92.67;83.87;;;;;;;4.26;100.00;103535.19;1900156;73;86356;-77
2022/01/25 04:52:05;;;;;;;91.23;82.87;;;;;;;3.78;100.00;103523.81;1849213;77;86450;-73
2022/01/25 04:57:54;;;;;;;90.93;82.73;;;;;;;4.04;100.00;103524.95;1912417;72;86185;-68
2022/01/25 05:03:51;;;;;;;91.07;83.00;;;;;;;3.84;100.00;103519.52;1964582;71;39758;-74
2022/01/25 05:09:20;;;;;;;91.23;82.50;;;;;;;3.29;100.00;103431.00;1830763;76;85594;-75
2022/01/25 05:15:19;;;;;;;91.77;83.27;;;;;;;3.91;100.00;103513.12;1887468;74;86581;-68
2022/01/25 05:26:54;;;;;;;88.90;80.47;;;;;;;3.85;100.00;103522.61;1939132;73;86084;-67
2022/01/25 05:35:45;;;;;;;89.13;80.97;;;;;;;3.93;100.00;103519.32;1913376;75;86256;-67
2022/01/25 05:38:15;;;;;;;86.13;77.83;;;;;;;3.84;100.00;103534.13;1816034;77;934911;-79
2022/01/25 05:40:49;;;;;;;89.33;81.03;;;;;;;3.98;100.00;103532.00;1799741;77;938680;-77
2022/01/25 05:46:13;;;;;;;89.03;80.63;;;;;;;4.18;100.00;103521.47;1791543;79;936714;-67
2022/01/25 05:48:42;;;;;;;88.03;79.47;;;;;;;4.08;100.00;103526.30;1791743;79;938702;-79
2022/01/25 05:51:12;;;;;;;85.80;77.63;;;;;;;4.02;100.00;103526.48;1805326;78;937026;-67
2022/01/25 05:53:43;;;;;;;87.27;79.07;;;;;;;3.99;100.00;103527.36;1805304;78;938979;-67
2022/01/25 05:56:13;;;;;;;89.77;81.00;;;;;;;3.92;100.00;103529.11;1805398;78;937052;-68
2022/01/25 05:58:43;;;;;;;88.83;80.07;;;;;;;3.82;100.00;103521.05;1805373;78;938695;-68
2022/01/25 06:01:13;;;;;;;87.20;78.77;;;;;;;4.02;100.00;103525.66;1793100;79;936825;-67
2022/01/25 06:06:57;;;;;;;88.73;79.77;;;;;;;4.26;100.00;103521.43;1918469;74;85181;-73
2022/01/25 06:12:44;;;;;;;90.70;82.10;;;;;;;4.28;100.00;103517.97;1972825;71;40423;-79
2022/01/25 06:18:27;;;;;;;85.27;76.90;;;;;;;4.17;100.00;103519.75;1813536;78;86582;-74
2022/01/25 06:24:12;;;;;;;87.37;78.97;;;;;;;4.24;100.00;103511.63;1839014;75;85230;-79
2022/01/25 06:29:54;;;;;;;92.13;83.23;;;;;;;4.09;100.00;103508.26;1923246;74;86298;-79
2022/01/25 06:35:39;;;;;;;94.03;85.23;;;;;;;4.00;100.00;103502.44;1986230;71;39616;-74
2022/01/25 06:41:23;;;;;;;91.83;83.03;;;;;;;3.91;100.00;103512.27;1842478;76;86736;-68
2022/01/25 06:47:08;;;;;;;92.97;84.13;;;;;;;4.36;100.00;103510.22;1883821;74;86323;-67
2022/01/25 06:52:53;;;;;;;93.77;84.87;;;;;;;4.24;100.00;103512.48;1941924;72;86116;-72
2022/01/25 06:58:40;;;;;;;92.87;84.17;;;;;;;4.42;100.00;103514.47;1978376;70;39743;-76
2022/01/25 07:04:29;;;;;;;94.83;85.93;;;;;;;4.36;100.00;103522.60;1952309;72;40204;-75
2022/01/25 07:10:12;;;;;;;98.80;89.77;;;;;;;4.20;100.00;103518.00;1841065;77;85816;-69
2022/01/25 07:15:56;;;;;;;97.60;88.50;;;;;;;4.25;100.00;103520.22;1914037;74;85534;-76
2022/01/25 07:21:40;;;;;;;95.70;86.03;;;;;;;4.34;100.00;103527.41;1982161;71;39482;-76
2022/01/25 07:27:25;;;;;;;95.10;86.03;;;;;;;4.23;100.00;103533.31;1848105;76;86161;-69
2022/01/25 07:33:09;;;;;;;97.63;88.23;;;;;;;4.24;100.00;103522.63;1893905;73;86332;-77
2022/01/25 07:38:55;;;;;;;95.90;86.07;;;;;;;4.19;100.00;103532.82;1920118;71;86439;-78
2022/01/25 07:44:39;;;;;;;95.57;86.20;;;;;;;4.22;100.00;103537.09;1985086;71;39718;-77
2022/01/25 07:50:24;;;;;;;93.47;84.27;;;;;;;4.20;100.00;103538.64;1852508;76;86076;-76
2022/01/25 07:56:08;;;;;;;95.60;86.27;;;;;;;4.19;100.00;103536.08;1872471;74;86400;-73
2022/01/25 08:01:53;;;;;;;95.03;85.47;;;;;;;4.10;100.00;103532.50;1923186;72;86350;-68
2022/01/25 08:07:36;;;;;;;94.73;85.10;;;;;;;4.24;100.00;103541.37;1984000;71;39604;-68
2022/01/25 08:13:20;;;;;;;84.77;76.83;;;;;;;4.30;100.00;103542.05;1841432;76;86309;-68
2022/01/25 08:19:05;;;;;;;87.27;79.30;;;;;;;4.51;100.00;103538.17;1869490;75;86464;-70
2022/01/25 08:24:49;;;;;;;89.57;81.43;;;;;;;4.67;100.00;103544.61;1929012;73;86047;-81
2022/01/25 08:30:36;;;;;;;84.53;76.63;;;;;;;4.32;100.00;103537.20;1979049;70;40327;-75
2022/01/25 08:36:20;;;;;;;91.73;83.00;;;;;;;4.38;100.00;103548.89;1844453;75;86591;-70
2022/01/25 08:42:08;;;;;;;91.30;82.40;;;;;;;4.38;100.00;103551.64;1873372;75;86715;-69
2022/01/25 08:47:52;;;;;;;84.30;75.90;;;;;;;4.47;100.00;103560.21;1911696;74;86388;-79
2022/01/25 08:53:36;;;;;;;85.37;76.97;;;;;;;4.53;100.00;103549.88;1949650;71;39447;-75
2022/01/25 08:59:22;;;;;;;85.77;77.60;;;;;;;4.73;100.00;103549.41;1842018;76;86039;-69
2022/01/25 09:05:06;;;;;;;88.47;80.13;;;;;;;4.53;100.00;103555.37;1885697;74;86635;-76
2022/01/25 09:10:57;;;;;;;82.03;74.10;;;;;;;4.73;100.00;103553.03;1924907;73;86764;-76
2022/01/25 09:16:37;;;;;;;83.67;75.43;;;;;;;4.72;100.00;103562.83;1979114;71;39598;-70
2022/01/25 09:22:22;;;;;;;83.60;75.13;;;;;;;4.89;100.00;103561.19;1825909;76;86546;-76
2022/01/25 09:28:06;;;;;;;84.33;76.20;;;;;;;4.92;100.00;103565.50;1874375;75;86355;-77
2022/01/25 09:33:51;;;;;;;88.20;79.87;;;;;;;4.62;100.00;103565.80;1909824;73;85630;-74
2022/01/25 09:39:35;;;;;;;82.30;74.20;;;;;;;4.67;100.00;103577.14;1985721;71;39726;-71
2022/01/25 09:45:24;;;;;;;84.03;75.77;;;;;;;4.79;100.00;103570.73;1950940;72;86327;-70
2022/01/25 09:51:11;;;;;;;86.20;77.87;;;;;;;4.90;100.00;103568.42;1884488;74;85335;-70
2022/01/25 09:57:00;;;;;;;83.83;75.70;;;;;;;4.70;100.00;103574.56;1913862;72;86447;-76
2022/01/25 10:02:50;;;;;;;83.80;76.03;;;;;;;4.72;100.00;103575.22;1935019;73;86402;-70
2022/01/25 10:08:35;;;;;;;83.37;75.33;;;;;;;4.87;100.00;103578.43;1937480;71;39646;-71
2022/01/25 10:14:25;;;;;;;84.70;76.23;;;;;;;4.85;100.00;103585.14;1858238;76;86318;-70
2022/01/25 10:20:26;;;;;;;83.73;75.57;;;;;;;4.89;100.00;103578.23;1860688;74;86385;-72
2022/01/25 10:26:12;;;;;;;84.40;76.40;;;;;;;4.89;100.00;103593.38;1808835;78;86680;-73
2022/01/25 10:31:59;;;;;;;81.87;74.10;;;;;;;4.83;100.00;103590.84;1906499;74;86161;-74
2022/01/25 10:37:45;;;;;;;82.03;74.13;;;;;;;4.82;100.00;103592.39;1926092;73;86568;-71
2022/01/25 10:43:30;;;;;;;81.17;73.53;;;;;;;4.86;100.00;103602.87;1892810;74;85340;-69
2022/01/25 10:49:23;;;;;;;81.87;74.10;;;;;;;4.86;100.00;103600.12;1892142;74;85397;-67
2022/01/25 10:55:08;;;;;;;83.50;75.90;;;;;;;4.85;100.00;103596.16;1872467;74;85849;-67
2022/01/25 11:00:53;;;;;;;82.90;74.83;;;;;;;4.88;100.00;103602.67;1928241;73;85335;-67
2022/01/25 11:06:46;;;;;;;81.93;74.33;;;;;;;4.76;100.00;103605.49;1947330;73;86508;-73
2022/01/25 11:12:36;;;;;;;83.03;75.03;;;;;;;4.75;100.00;103603.80;1981569;71;39642;-68
2022/01/25 11:18:16;;;;;;;80.87;73.13;;;;;;;4.87;100.00;103607.34;1875670;74;85582;-73
2022/01/25 11:24:01;;;;;;;85.40;77.47;;;;;;;4.74;100.00;103609.83;1876261;75;86366;-72
2022/01/25 11:29:47;;;;;;;83.87;75.90;;;;;;;4.94;100.00;103604.20;1919709;72;85488;-67
2022/01/25 11:35:34;;;;;;;83.83;75.77;;;;;;;4.96;100.00;103618.63;1984069;71;39659;-74
2022/01/25 11:41:23;;;;;;;82.27;74.57;;;;;;;5.02;100.00;103613.80;1840548;76;86154;-74
2022/01/25 11:47:28;;;;;;;85.67;77.70;;;;;;;5.10;100.00;103607.37;1850566;76;86450;-68
2022/01/25 11:53:15;;;;;;;81.80;73.97;;;;;;;5.22;100.00;103596.26;1795523;78;86146;-73
2022/01/25 11:59:01;;;;;;;83.37;75.40;;;;;;;5.37;100.00;103605.47;1886634;74;86354;-68
2022/01/25 12:04:46;;;;;;;79.50;71.93;;;;;;;5.14;100.00;103597.70;1911335;72;86260;-72
2022/01/25 12:10:38;;;;;;;83.20;75.53;;;;;;;5.12;100.00;103584.64;1981678;71;39422;-73
2022/01/25 12:16:36;;;;;;;77.43;70.23;;;;;;;5.21;100.00;103585.44;1943999;71;39610;-72
2022/01/25 12:22:37;;;;;;;79.73;72.47;;;;;;;5.04;100.00;103559.39;1948190;72;85682;-72
2022/01/25 12:28:29;;;;;;;79.77;72.30;;;;;;;5.01;100.00;103567.99;1850808;76;86367;-73
2022/01/25 12:34:29;;;;;;;80.47;73.27;;;;;;;4.99;100.00;103565.95;1831799;76;86073;-70
2022/01/25 12:43:47;;;;;;;80.53;73.37;;;;;;;5.04;100.00;103568.16;1900993;74;86079;-73
2022/01/25 12:46:20;;;;;;;80.63;73.43;;;;;;;4.99;100.00;103570.09;1791354;76;936943;-70
2022/01/25 12:48:54;;;;;;;79.30;71.70;;;;;;;5.01;100.00;103561.62;1763623;78;937853;-73
2022/01/25 12:51:27;;;;;;;80.13;72.77;;;;;;;5.02;100.00;103563.34;1772536;79;939117;-73
2022/01/25 12:53:59;;;;;;;78.35;71.17;;;;;;;4.89;100.00;103565.84;1779806;79;938816;-72
2022/01/25 12:56:34;;;;;;;77.97;71.20;;;;;;;4.94;100.00;103566.16;1756358;79;938826;-70
2022/01/25 12:59:06;;;;;;;82.87;75.47;;;;;;;4.94;100.00;103559.27;1793409;78;936781;-73
2022/01/25 13:04:52;;;;;;;79.73;72.70;;;;;;;4.88;100.00;103543.45;1908826;74;86238;-73
2022/01/25 13:10:37;;;;;;;77.23;70.73;;;;;;;4.91;100.00;103539.84;1985512;71;39631;-74
2022/01/25 13:16:43;;;;;;;79.83;72.67;;;;;;;4.92;100.00;103533.27;1959908;71;39561;-75
2022/01/25 13:22:36;;;;;;;76.63;70.07;;;;;;;4.97;100.00;103529.45;1802214;78;86255;-69
2022/01/25 13:28:32;;;;;;;74.00;67.60;;;;;;;4.80;100.00;103517.34;1834091;76;86633;-73
2022/01/25 13:34:06;;;;;;;69.90;64.20;;;;;;;4.99;100.00;103521.88;1880171;74;86619;-70
2022/01/25 13:39:59;;;;;;;68.87;63.27;;;;;;;4.85;100.00;103517.66;1901399;73;86534;-73
2022/01/25 13:45:50;;;;;;;70.70;64.90;;;;;;;4.77;100.00;103522.71;1920612;74;86645;-69
2022/01/25 13:51:43;;;;;;;67.57;62.27;;;;;;;4.72;100.00;103519.64;1978883;71;39661;-69
2022/01/25 13:57:33;;;;;;;66.80;61.47;;;;;;;4.90;100.00;103521.59;1895598;74;86044;-70
2022/01/25 14:03:18;;;;;;;69.07;63.80;;;;;;;4.79;100.00;103512.36;1857110;76;86306;-70
2022/01/25 14:09:09;;;;;;;69.10;63.70;;;;;;;4.83;100.00;103515.63;1874743;75;86424;-72
2022/01/25 14:27:19;;;;;;;73.57;67.70;;;;;;;4.79;100.00;103514.28;1868008;75;86062;-69
2022/01/25 14:33:11;;;;;;;73.43;67.23;;;;;;;4.84;100.00;103506.30;1881860;74;86562;-72
2022/01/25 14:39:03;;;;;;;75.03;68.63;;;;;;;4.94;100.00;103500.91;1883324;75;86239;-72
2022/01/25 14:44:47;;;;;;;74.63;68.73;;;;;;;4.78;100.00;103509.29;1942500;73;85350;-69
2022/01/25 14:50:34;;;;;;;69.40;63.67;;;;;;;4.80;100.00;103509.09;1932778;71;39628;-66
2022/01/25 14:56:25;;;;;;;70.40;64.67;;;;;;;4.79;100.00;103506.84;1892659;74;85630;-72
2022/01/25 15:02:11;;;;;;;74.33;68.03;;;;;;;4.85;100.00;103499.25;1880832;74;85437;-71
2022/01/25 15:07:54;;;;;;;76.37;69.80;;;;;;;4.73;100.00;103495.72;1929579;73;86327;-71
2022/01/25 15:13:40;;;;;;;75.30;68.27;;;;;;;4.79;100.00;103483.44;1986003;71;40233;-71
2022/01/25 15:19:24;;;;;;;77.17;70.17;;;;;;;4.64;100.00;103483.91;1815545;76;86298;-70
2022/01/25 15:25:10;;;;;;;74.00;67.60;;;;;;;4.90;100.00;103480.28;1874115;75;86372;-72
2022/01/25 15:30:54;;;;;;;76.53;69.57;;;;;;;4.96;100.00;103471.27;1903833;74;85582;-67
2022/01/25 15:36:39;;;;;;;79.07;71.43;;;;;;;4.87;100.00;103479.80;1947883;71;40173;-67
2022/01/25 15:42:28;;;;;;;78.43;71.57;;;;;;;4.95;100.00;103470.09;1973792;71;85671;-68
2022/01/25 15:48:11;;;;;;;75.23;68.43;;;;;;;4.73;100.00;103468.19;1799200;78;86075;-68
2022/01/25 15:53:58;;;;;;;77.93;71.03;;;;;;;4.83;100.00;103475.70;1917225;73;86260;-69
2022/01/25 15:59:43;;;;;;;77.47;70.53;;;;;;;4.84;100.00;103471.88;1820062;78;86592;-72
2022/01/25 16:05:25;;;;;;;75.00;68.30;;;;;;;4.86;100.00;103468.44;1834227;76;86382;-68
2022/01/25 16:11:14;;;;;;;79.93;72.50;;;;;;;4.73;100.00;103466.30;1895352;74;85448;-68
2022/01/25 16:16:59;;;;;;;80.40;73.07;;;;;;;4.88;100.00;103467.20;1833714;77;86113;-72
2022/01/25 16:22:42;;;;;;;80.03;72.50;;;;;;;4.80;100.00;103467.78;1972907;71;39570;-68
2022/01/25 16:28:26;;;;;;;83.37;75.30;;;;;;;4.74;100.00;103465.27;1824836;76;86563;-72
2022/01/25 16:34:13;;;;;;;84.73;76.63;;;;;;;4.68;100.00;103471.48;1807584;78;86320;-69
2022/01/25 16:39:58;;;;;;;81.23;73.27;;;;;;;4.68;100.00;103472.86;1921215;73;86710;-68
2022/01/25 16:45:42;;;;;;;80.33;72.80;;;;;;;4.55;100.00;103476.21;1974071;71;73038;-69
2022/01/25 16:51:26;;;;;;;84.23;76.30;;;;;;;4.52;100.00;103475.72;1843354;76;86074;-70
2022/01/25 16:57:11;;;;;;;82.17;74.73;;;;;;;4.53;100.00;103486.56;1798598;78;86505;-71
2022/01/25 17:02:55;;;;;;;84.33;76.13;;;;;;;4.50;100.00;103491.03;1911521;74;86265;-69
2022/01/25 17:08:40;;;;;;;83.60;75.60;;;;;;;4.40;100.00;103495.92;1978731;71;39534;-73
2022/01/25 17:14:24;;;;;;;85.07;77.00;;;;;;;4.33;100.00;103500.92;1837196;76;86385;-73
2022/01/25 17:20:10;;;;;;;81.37;73.80;;;;;;;4.44;100.00;103496.41;1879266;74;86776;-73
2022/01/25 17:25:59;;;;;;;84.53;76.43;;;;;;;4.47;100.00;103509.81;1929783;72;86882;-68
2022/01/25 17:31:44;;;;;;;82.97;74.80;;;;;;;4.42;100.00;103511.72;1902658;73;86480;-73
2022/01/25 17:37:31;;;;;;;85.47;76.77;;;;;;;4.45;100.00;103516.03;1892463;74;86591;-74
2022/01/25 17:43:15;;;;;;;92.80;83.93;;;;;;;4.49;100.00;103511.88;1877093;75;86610;-74
2022/01/25 17:49:01;;;;;;;82.47;74.50;;;;;;;4.41;100.00;103519.62;1843132;76;85638;-68
2022/01/25 17:54:46;;;;;;;80.53;73.03;;;;;;;4.28;100.00;103519.34;1912904;74;86042;-74
2022/01/25 18:00:31;;;;;;;79.47;72.17;;;;;;;4.32;100.00;103524.83;1979586;71;39693;-73
2022/01/25 18:06:15;;;;;;;80.23;72.87;;;;;;;4.20;100.00;103524.02;1875786;75;86274;-76
2022/01/25 18:08:47;;;;;;;80.83;73.53;;;;;;;4.20;100.00;103538.64;1809825;77;937201;-76
2022/01/25 18:14:35;;;;;;;77.67;70.60;;;;;;;4.06;100.00;103529.22;1987288;71;39584;-75
2022/01/25 18:20:23;;;;;;;82.67;75.37;;;;;;;4.07;100.00;103536.95;1843712;76;85934;-74
2022/01/25 18:26:16;;;;;;;78.90;71.70;;;;;;;4.04;100.00;103538.70;1873297;73;86480;-72
2022/01/25 18:31:55;;;;;;;79.90;72.80;;;;;;;4.04;100.00;103533.20;1910735;74;86514;-74
2022/01/25 18:37:43;;;;;;;78.57;71.57;;;;;;;4.13;100.00;103537.12;1942695;73;86013;-77
2022/01/25 18:43:29;;;;;;;80.73;73.23;;;;;;;4.01;100.00;103549.55;1875178;74;85998;-76
2022/01/25 18:49:17;;;;;;;79.10;71.93;;;;;;;4.08;100.00;103553.30;1893819;74;86267;-79
2022/01/25 18:55:04;;;;;;;79.63;72.53;;;;;;;4.08;100.00;103556.05;1880864;73;86355;-77
2022/01/25 19:00:51;;;;;;;78.70;71.53;;;;;;;4.02;100.00;103556.74;1846301;76;86622;-74
2022/01/25 19:06:34;;;;;;;82.33;74.67;;;;;;;4.09;100.00;103564.65;1963070;71;39574;-77
2022/01/25 19:12:20;;;;;;;84.07;76.37;;;;;;;3.98;100.00;103571.87;1840223;76;86783;-75
2022/01/25 19:18:06;;;;;;;82.90;75.47;;;;;;;4.01;100.00;103581.18;1881412;73;86513;-73
2022/01/25 19:23:50;;;;;;;81.37;74.23;;;;;;;4.06;100.00;103577.36;1911946;74;86322;-74
2022/01/25 19:29:36;;;;;;;79.37;72.57;;;;;;;4.29;100.00;103576.61;1980632;71;39739;-75
2022/01/25 19:35:22;;;;;;;78.13;71.13;;;;;;;4.46;100.00;103577.75;1848755;76;86433;-70
2022/01/25 19:41:08;;;;;;;75.53;69.03;;;;;;;4.22;100.00;103580.60;1884217;73;85282;-77
2022/01/25 19:46:53;;;;;;;78.40;71.50;;;;;;;4.13;100.00;103579.77;1900036;72;86693;-82
2022/01/25 19:52:42;;;;;;;78.87;71.87;;;;;;;4.14;100.00;103577.88;1931343;71;39490;-78
2022/01/25 19:58:29;;;;;;;82.47;75.17;;;;;;;4.22;100.00;103581.98;1825057;76;86570;-83
2022/01/25 20:04:14;;;;;;;80.03;73.17;;;;;;;4.07;100.00;103576.84;1765557;80;86214;-80
2022/01/25 20:09:57;;;;;;;77.37;70.93;;;;;;;4.07;100.00;103587.84;1926730;71;86242;-75
2022/01/25 20:15:45;;;;;;;77.67;70.87;;;;;;;4.32;100.00;103586.74;1942193;73;86183;-80
2022/01/25 20:21:34;;;;;;;76.47;69.80;;;;;;;4.08;100.00;103588.20;1968944;71;39725;-75
2022/01/25 20:27:25;;;;;;;77.90;71.07;;;;;;;4.13;100.00;103579.77;1845757;76;86436;-73
2022/01/25 20:33:04;;;;;;;79.17;72.53;;;;;;;4.13;100.00;103586.64;1908694;74;86588;-75
2022/01/25 20:38:49;;;;;;;78.87;71.50;;;;;;;4.10;100.00;103578.75;1914817;74;85958;-74
2022/01/25 20:44:33;;;;;;;80.70;73.60;;;;;;;4.06;100.00;103575.98;1978742;71;40494;-76
2022/01/25 20:50:19;;;;;;;78.47;71.20;;;;;;;4.07;100.00;103581.83;1836210;76;86206;-72
2022/01/25 20:56:05;;;;;;;79.83;72.63;;;;;;;4.05;100.00;103581.17;1883702;73;85509;-71
2022/01/25 21:01:52;;;;;;;78.03;71.13;;;;;;;4.26;100.00;103582.48;1931102;73;86436;-71
2022/01/25 21:07:35;;;;;;;82.40;75.33;;;;;;;4.20;100.00;103586.78;1975890;71;39601;-74
2022/01/25 21:13:21;;;;;;;78.70;71.90;;;;;;;4.12;100.00;103589.05;1848904;76;85420;-73
2022/01/25 21:19:06;;;;;;;78.17;70.97;;;;;;;4.04;100.00;103582.19;1869581;75;86466;-72
2022/01/25 21:24:51;;;;;;;78.90;71.83;;;;;;;4.09;100.00;103579.78;1912244;73;86303;-74
2022/01/25 21:30:37;;;;;;;81.07;73.73;;;;;;;4.00;100.00;103591.83;1986251;71;39702;-71
2022/01/25 21:36:23;;;;;;;79.80;71.93;;;;;;;4.14;100.00;103579.25;1846945;76;86226;-71
2022/01/25 21:42:08;;;;;;;80.83;73.13;;;;;;;4.07;100.00;103585.09;1881196;73;86524;-72
2022/01/25 21:47:55;;;;;;;81.43;73.77;;;;;;;4.23;100.00;103582.33;1910401;74;86194;-70
2022/01/25 21:53:40;;;;;;;83.87;76.07;;;;;;;4.11;100.00;103592.82;1939554;71;39752;-73
2022/01/25 21:59:24;;;;;;;81.23;73.57;;;;;;;4.07;100.00;103576.84;1981623;71;86413;-74
2022/01/25 22:05:11;;;;;;;83.30;75.37;;;;;;;4.18;100.00;103573.73;1882322;73;86659;-76
2022/01/25 22:10:55;;;;;;;79.27;71.97;;;;;;;4.28;100.00;103577.12;1909090;72;86102;-75
2022/01/25 22:16:42;;;;;;;82.30;74.27;;;;;;;4.14;100.00;103572.37;1965335;71;39597;-72
2022/01/25 22:22:26;;;;;;;84.00;76.00;;;;;;;4.26;100.00;103581.97;1825679;76;86121;-73
2022/01/25 22:28:11;;;;;;;81.23;73.43;;;;;;;4.12;100.00;103581.31;1807310;78;85913;-72
2022/01/25 22:33:56;;;;;;;83.30;75.43;;;;;;;4.14;100.00;103579.25;1908694;73;85431;-75
2022/01/25 22:39:40;;;;;;;81.50;74.10;;;;;;;4.15;100.00;103580.95;1967300;71;40027;-75
2022/01/25 22:45:26;;;;;;;83.30;75.50;;;;;;;4.15;100.00;103589.75;1839435;76;85697;-73
2022/01/25 22:51:10;;;;;;;81.03;73.53;;;;;;;4.22;100.00;103591.61;1839481;76;85554;-75
2022/01/25 22:56:54;;;;;;;79.63;72.03;;;;;;;4.24;100.00;103607.41;1916429;74;86408;-76
2022/01/25 23:02:41;;;;;;;81.13;73.33;;;;;;;4.35;100.00;103604.30;1970875;71;39720;-76
2022/01/25 23:08:25;;;;;;;79.30;72.03;;;;;;;4.29;100.00;103598.63;1833084;75;86612;-75
2022/01/25 23:14:21;;;;;;;84.03;76.33;;;;;;;4.49;100.00;103610.42;1872004;75;86326;-75
2022/01/25 23:19:59;;;;;;;79.17;72.27;;;;;;;4.50;100.00;103614.89;1908999;74;86372;-75
2022/01/25 23:25:45;;;;;;;81.37;73.87;;;;;;;4.44;100.00;103607.88;1912940;72;86534;-77
2022/01/25 23:31:44;;;;;;;83.33;75.83;;;;;;;4.53;100.00;103587.55;1978854;71;39719;-76
2022/01/25 23:37:25;;;;;;;83.33;75.73;;;;;;;4.40;100.00;103587.25;1883855;74;86279;-76
2022/01/25 23:43:14;;;;;;;82.00;74.53;;;;;;;4.36;100.00;103584.00;1802876;78;86103;-73
2022/01/25 23:49:00;;;;;;;83.83;76.23;;;;;;;4.43;100.00;103591.88;1923540;73;86321;-75
